PWSweather.com
Personal Weather Stations
Station Observations
SWHWX01
St AppolinardFR 38160

St AppolinardFR 38160

Lat: 45.191, Lon: 5.268

Elevation: 1460

Station Type: Davis Vantage Pro2 Plus

www.sweetwebhome.com/?show=wxindex

High Low Average
Temperature 59.4°F15.2°C 46.1°F7.8°C 51.2°F10.7°C
Dew Point 47.6°F8.7°C 39.7°F4.3°C 43.5°F6.4°C
Winds 11.4 mph 18.3 kmh Calm Calm 2.0 mph SW3.2 kmh SW
Wind Gusts 19.0 mph30.6 kmh -- 4.0 mph6.4 kmh
Humidity 92% 59% 75%
Pressure 29.88 in1011.9 mb 29.81 in1009.5 mb -
Precipitation 0.00 in0.0 mm - -
Hour Temp Dew Point Humidity Winds Wind Gusts Pressure Precip Precip Rate Daily Precip Total
12:00 AM 47.5°F8.6°C 40.0°F4.4°C 75% 2.2 mph S3.5 kmh S 3.0 mph4.8 kmh 29.85 in1010.8 mb - 0.00 in0.0 mm 0.00 in0.0 mm
12:30 AM 48.6°F9.2°C 40.3°F4.6°C 73% 3.3 mph S5.3 kmh S 4.0 mph6.4 kmh 29.85 in1010.8 mb - 0.00 in0.0 mm 0.00 in0.0 mm
01:00 AM 50.0°F10.0°C 40.6°F4.8°C 70% 4.2 mph SW6.8 kmh SW 7.0 mph11.3 kmh 29.86 in1011.2 mb - 0.00 in0.0 mm 0.00 in0.0 mm
01:30 AM 50.0°F10.0°C 41.0°F5.0°C 71% 1.2 mph S1.9 kmh S 2.0 mph3.2 kmh 29.85 in1010.8 mb - 0.00 in0.0 mm 0.00 in0.0 mm
02:00 AM 49.7°F9.8°C 40.7°F4.8°C 71% 1.8 mph WSW2.9 kmh WSW 3.0 mph4.8 kmh 29.85 in1010.8 mb - 0.00 in0.0 mm 0.00 in0.0 mm
02:30 AM 49.4°F9.7°C 40.4°F4.7°C 71% 1.1 mph WSW1.8 kmh WSW 3.0 mph4.8 kmh 29.84 in1010.5 mb - 0.00 in0.0 mm 0.00 in0.0 mm
03:00 AM 48.3°F9.1°C 40.4°F4.7°C 74% 4.1 mph W6.6 kmh W 4.0 mph6.4 kmh 29.83 in1010.2 mb - 0.00 in0.0 mm 0.00 in0.0 mm
03:30 AM 50.8°F10.4°C 39.9°F4.4°C 66% 1.1 mph W1.8 kmh W 4.0 mph6.4 kmh 29.83 in1010.2 mb - 0.00 in0.0 mm 0.00 in0.0 mm
04:00 AM 49.1°F9.5°C 39.7°F4.3°C 70% 0.8 mph W1.3 kmh W 2.0 mph3.2 kmh 29.83 in1010.2 mb - 0.00 in0.0 mm 0.00 in0.0 mm
04:30 AM 49.8°F9.9°C 40.8°F4.9°C 71% Calm Calm -- 29.84 in1010.5 mb - 0.00 in0.0 mm 0.00 in0.0 mm
05:00 AM 47.8°F8.8°C 40.6°F4.8°C 76% 0.2 mph W0.3 kmh W 1.0 mph1.6 kmh 29.84 in1010.5 mb - 0.00 in0.0 mm 0.00 in0.0 mm
05:30 AM 48.5°F9.2°C 41.3°F5.2°C 76% Calm Calm -- 29.84 in1010.5 mb - 0.00 in0.0 mm 0.00 in0.0 mm
06:00 AM 47.2°F8.4°C 41.3°F5.2°C 80% 0.7 mph W1.1 kmh W 2.0 mph3.2 kmh 29.84 in1010.5 mb - 0.00 in0.0 mm 0.00 in0.0 mm
06:30 AM 46.4°F8.0°C 41.2°F5.1°C 82% Calm Calm -- 29.85 in1010.8 mb - 0.00 in0.0 mm 0.00 in0.0 mm
07:00 AM 47.5°F8.6°C 41.6°F5.3°C 80% 0.4 mph W0.6 kmh W 1.0 mph1.6 kmh 29.85 in1010.8 mb - 0.00 in0.0 mm 0.00 in0.0 mm
07:30 AM 46.1°F7.8°C 41.2°F5.1°C 83% 3.3 mph W5.3 kmh W 4.0 mph6.4 kmh 29.85 in1010.8 mb - 0.00 in0.0 mm 0.00 in0.0 mm
08:00 AM 46.7°F8.2°C 41.2°F5.1°C 81% 2.4 mph W3.9 kmh W 3.0 mph4.8 kmh 29.85 in1010.8 mb - 0.00 in0.0 mm 0.00 in0.0 mm
08:30 AM 48.7°F9.3°C 42.5°F5.8°C 79% 2.0 mph W3.2 kmh W 3.0 mph4.8 kmh 29.86 in1011.2 mb - 0.00 in0.0 mm 0.00 in0.0 mm
09:00 AM 47.5°F8.6°C 42.6°F5.9°C 83% 0.6 mph W1.0 kmh W 1.0 mph1.6 kmh 29.86 in1011.2 mb - 0.00 in0.0 mm 0.00 in0.0 mm
09:30 AM 49.3°F9.6°C 44.4°F6.9°C 83% 1.6 mph W2.6 kmh W 3.0 mph4.8 kmh 29.85 in1010.8 mb - 0.00 in0.0 mm 0.00 in0.0 mm
10:00 AM 53.5°F11.9°C 45.8°F7.7°C 75% 1.8 mph W2.9 kmh W 2.0 mph3.2 kmh 29.86 in1011.2 mb - 0.00 in0.0 mm 0.00 in0.0 mm
10:30 AM 53.1°F11.7°C 45.8°F7.7°C 76% 1.0 mph NNW1.6 kmh NNW 6.0 mph9.7 kmh 29.85 in1010.8 mb - 0.00 in0.0 mm 0.00 in0.0 mm
11:00 AM 53.5°F11.9°C 45.8°F7.7°C 75% 0.3 mph SE0.5 kmh SE 1.0 mph1.6 kmh 29.85 in1010.8 mb - 0.00 in0.0 mm 0.00 in0.0 mm
11:30 AM 55.7°F13.2°C 47.1°F8.4°C 73% 3.4 mph SE5.5 kmh SE 6.0 mph9.7 kmh 29.84 in1010.5 mb - 0.00 in0.0 mm 0.00 in0.0 mm
12:00 PM 57.0°F13.9°C 45.3°F7.4°C 65% 3.6 mph S5.8 kmh S 5.0 mph8.0 kmh 29.84 in1010.5 mb - 0.00 in0.0 mm 0.00 in0.0 mm
12:30 PM 59.4°F15.2°C 45.1°F7.3°C 59% 5.5 mph S8.9 kmh S 8.0 mph12.9 kmh 29.83 in1010.2 mb - 0.00 in0.0 mm 0.00 in0.0 mm
01:00 PM 58.2°F14.6°C 44.4°F6.9°C 60% 2.7 mph S4.3 kmh S 3.0 mph4.8 kmh 29.82 in1009.8 mb - 0.00 in0.0 mm 0.00 in0.0 mm
01:30 PM 58.7°F14.8°C 46.1°F7.8°C 63% 1.3 mph SW2.1 kmh SW 4.0 mph6.4 kmh 29.82 in1009.8 mb - 0.00 in0.0 mm 0.00 in0.0 mm
02:00 PM 58.2°F14.6°C 46.9°F8.3°C 66% 8.5 mph WSW13.7 kmh WSW 13.0 mph20.9 kmh 29.82 in1009.8 mb - 0.00 in0.0 mm 0.00 in0.0 mm
02:30 PM 56.9°F13.8°C 47.6°F8.7°C 71% 7.7 mph W12.4 kmh W 10.0 mph16.1 kmh 29.81 in1009.5 mb - 0.00 in0.0 mm 0.00 in0.0 mm
03:00 PM 55.4°F13.0°C 47.2°F8.4°C 74% 5.0 mph WSW8.0 kmh WSW 8.0 mph12.9 kmh 29.81 in1009.5 mb - 0.00 in0.0 mm 0.00 in0.0 mm
03:30 PM 54.1°F12.3°C 47.4°F8.6°C 78% 5.7 mph WSW9.2 kmh WSW 9.0 mph14.5 kmh 29.82 in1009.8 mb - 0.00 in0.0 mm 0.00 in0.0 mm
04:00 PM 53.6°F12.0°C 46.9°F8.3°C 78% 2.0 mph SW3.2 kmh SW 2.0 mph3.2 kmh 29.83 in1010.2 mb - 0.00 in0.0 mm 0.00 in0.0 mm
04:30 PM 53.6°F12.0°C 46.6°F8.1°C 77% 4.8 mph W7.7 kmh W 6.0 mph9.7 kmh 29.84 in1010.5 mb - 0.00 in0.0 mm 0.00 in0.0 mm
05:00 PM 54.0°F12.2°C 45.9°F7.7°C 74% 0.4 mph SW0.6 kmh SW -- 29.83 in1010.2 mb - 0.00 in0.0 mm 0.00 in0.0 mm
05:30 PM 53.6°F12.0°C 45.2°F7.3°C 73% Calm Calm -- 29.83 in1010.2 mb - 0.00 in0.0 mm 0.00 in0.0 mm
06:00 PM 53.6°F12.0°C 44.4°F6.9°C 71% 0.8 mph E1.3 kmh E 1.0 mph1.6 kmh 29.84 in1010.5 mb - 0.00 in0.0 mm 0.00 in0.0 mm
06:30 PM 54.0°F12.2°C 43.3°F6.3°C 67% 0.8 mph SW1.3 kmh SW 5.0 mph8.0 kmh 29.84 in1010.5 mb - 0.00 in0.0 mm 0.00 in0.0 mm
07:00 PM 52.9°F11.6°C 43.0°F6.1°C 69% Calm Calm -- 29.84 in1010.5 mb - 0.00 in0.0 mm 0.00 in0.0 mm
07:30 PM 51.4°F10.8°C 43.4°F6.3°C 74% 2.4 mph SW3.9 kmh SW 4.0 mph6.4 kmh 29.86 in1011.2 mb - 0.00 in0.0 mm 0.00 in0.0 mm
08:00 PM 50.4°F10.2°C 43.5°F6.4°C 77% 1.6 mph SW2.6 kmh SW 2.0 mph3.2 kmh 29.86 in1011.2 mb - 0.00 in0.0 mm 0.00 in0.0 mm
08:30 PM 50.0°F10.0°C 43.4°F6.3°C 78% 1.5 mph SW2.4 kmh SW 2.0 mph3.2 kmh 29.86 in1011.2 mb - 0.00 in0.0 mm 0.00 in0.0 mm
09:00 PM 50.3°F10.2°C 43.7°F6.5°C 78% 11.4 mph WSW18.3 kmh WSW 19.0 mph30.6 kmh 29.88 in1011.9 mb - 0.00 in0.0 mm 0.00 in0.0 mm
09:30 PM 48.1°F8.9°C 44.1°F6.7°C 86% 2.6 mph WSW4.2 kmh WSW 5.0 mph8.0 kmh 29.88 in1011.9 mb - 0.00 in0.0 mm 0.00 in0.0 mm
10:00 PM 47.4°F8.6°C 44.3°F6.8°C 89% 4.4 mph WSW7.1 kmh WSW 5.0 mph8.0 kmh 29.88 in1011.9 mb - 0.00 in0.0 mm 0.00 in0.0 mm
10:30 PM 47.2°F8.4°C 44.4°F6.9°C 90% 0.2 mph WSW0.3 kmh WSW 1.0 mph1.6 kmh 29.88 in1011.9 mb - 0.00 in0.0 mm 0.00 in0.0 mm
11:00 PM 47.0°F8.3°C 44.5°F6.9°C 91% 2.4 mph WSW3.9 kmh WSW 3.0 mph4.8 kmh 29.87 in1011.5 mb - 0.00 in0.0 mm 0.00 in0.0 mm
11:30 PM 47.2°F8.4°C 45.0°F7.2°C 92% 1.6 mph WSW2.6 kmh WSW 6.0 mph9.7 kmh 29.88 in1011.9 mb - 0.00 in0.0 mm 0.00 in0.0 mm